createdAt,value
2023-01-05T00:00:02.367Z,7.80
2023-01-05T00:03:03.917Z,7.78
2023-01-05T00:06:08.105Z,7.76
2023-01-05T00:09:12.913Z,7.75
2023-01-05T00:12:32.839Z,7.74
2023-01-05T00:15:52.988Z,7.73
2023-01-05T00:19:13.154Z,7.69
2023-01-05T00:22:32.424Z,7.69
2023-01-05T00:25:38.901Z,7.68
2023-01-05T00:28:40.453Z,7.67
2023-01-05T00:31:42.018Z,7.67
2023-01-05T00:34:43.624Z,7.65
2023-01-05T00:37:45.667Z,7.62
2023-01-05T00:40:47.255Z,7.63
2023-01-05T00:43:48.780Z,7.61
2023-01-05T00:46:50.353Z,7.60
2023-01-05T00:49:51.874Z,7.59
2023-01-05T00:52:54.088Z,7.59
2023-01-05T00:55:59.964Z,7.58
2023-01-05T00:59:01.524Z,7.55
2023-01-05T01:02:03.634Z,7.53
2023-01-05T01:05:06.189Z,7.53
2023-01-05T01:08:07.778Z,7.52
2023-01-05T01:11:10.331Z,7.50
2023-01-05T01:14:13.723Z,7.49
2023-01-05T01:17:16.847Z,7.49
2023-01-05T01:20:19.045Z,7.49
2023-01-05T01:23:20.569Z,7.49
2023-01-05T01:26:22.322Z,7.47
2023-01-05T01:29:25.115Z,7.47
2023-01-05T01:32:26.686Z,7.47
2023-01-05T01:35:28.243Z,7.47
2023-01-05T01:38:29.774Z,7.46
2023-01-05T01:41:31.611Z,7.45
2023-01-05T01:44:59.903Z,7.43
2023-01-05T01:48:01.769Z,7.42
2023-01-05T01:51:10.920Z,7.39
2023-01-05T01:54:15.846Z,7.39
2023-01-05T01:57:17.796Z,7.40
2023-01-05T02:00:21.371Z,7.38
2023-01-05T02:03:23.096Z,7.35
2023-01-05T02:06:24.680Z,7.34
2023-01-05T02:09:26.835Z,7.31
2023-01-05T02:12:46.274Z,7.30
2023-01-05T02:16:03.498Z,7.30
2023-01-05T02:19:23.337Z,7.28
2023-01-05T02:22:37.057Z,7.27
2023-01-05T02:26:05.654Z,7.25
2023-01-05T02:29:33.530Z,7.24
2023-01-05T02:32:37.978Z,7.24
2023-01-05T02:35:39.562Z,7.25
2023-01-05T02:38:51.606Z,7.26
2023-01-05T02:41:56.008Z,7.28
2023-01-05T02:44:57.601Z,7.27
2023-01-05T02:47:59.203Z,7.28
2023-01-05T02:51:06.337Z,7.28
2023-01-05T02:54:18.600Z,7.27
2023-01-05T02:57:45.299Z,7.26
2023-01-05T03:00:58.198Z,7.22
2023-01-05T03:04:01.870Z,7.21
2023-01-05T03:07:07.885Z,7.20
2023-01-05T03:10:30.673Z,7.19
2023-01-05T03:13:42.979Z,7.19
2023-01-05T03:16:48.103Z,7.17
2023-01-05T03:19:51.062Z,7.16
2023-01-05T03:23:14.051Z,7.14
2023-01-05T03:26:34.538Z,7.11
2023-01-05T03:29:54.470Z,7.10
2023-01-05T03:33:31.084Z,7.09
2023-01-05T03:36:43.208Z,7.08
2023-01-05T03:39:47.320Z,7.09
2023-01-05T03:42:49.056Z,7.07
2023-01-05T03:45:57.706Z,7.09
2023-01-05T03:48:59.402Z,7.08
2023-01-05T03:52:00.958Z,7.08
2023-01-05T03:55:02.493Z,7.09
2023-01-05T03:58:04.068Z,7.09
2023-01-05T04:01:06.214Z,7.09
2023-01-05T04:04:07.836Z,7.10
2023-01-05T04:07:09.531Z,7.10
2023-01-05T04:10:11.464Z,7.10
2023-01-05T04:13:13.208Z,7.10
2023-01-05T04:16:14.969Z,7.08
2023-01-05T04:19:17.092Z,7.06
2023-01-05T04:22:23.680Z,7.05
2023-01-05T04:25:28.623Z,7.05
2023-01-05T04:28:30.202Z,7.05
2023-01-05T04:31:32.081Z,7.06
2023-01-05T04:34:33.773Z,7.05
2023-01-05T04:37:35.341Z,7.06
2023-01-05T04:40:36.900Z,7.06
2023-01-05T04:43:38.510Z,7.06
2023-01-05T04:46:40.131Z,7.04
2023-01-05T04:49:41.792Z,7.02
2023-01-05T04:52:43.378Z,7.01
2023-01-05T04:55:45.623Z,7.00
2023-01-05T04:58:47.195Z,7.01
2023-01-05T05:01:48.828Z,7.01
2023-01-05T05:04:50.560Z,7.01
2023-01-05T05:07:52.178Z,7.00
2023-01-05T05:10:53.771Z,7.01
2023-01-05T05:13:55.297Z,7.01
2023-01-05T05:16:57.232Z,7.02
2023-01-05T05:19:58.800Z,7.03
2023-01-05T05:23:00.645Z,7.03
2023-01-05T05:26:02.238Z,7.03
2023-01-05T05:29:03.787Z,7.03
2023-01-05T05:32:05.402Z,7.01
2023-01-05T05:35:07.468Z,6.99
2023-01-05T05:38:09.133Z,6.97
2023-01-05T05:41:10.976Z,6.93
2023-01-05T05:44:12.568Z,6.92
2023-01-05T05:47:14.208Z,7.12
2023-01-05T05:50:15.939Z,7.23
2023-01-05T05:53:17.545Z,7.24
2023-01-05T05:56:19.800Z,7.23
2023-01-05T05:59:21.453Z,7.18
2023-01-05T06:02:23.052Z,7.13
2023-01-05T06:05:24.703Z,7.06
2023-01-05T06:08:27.214Z,7.02
2023-01-05T06:11:28.799Z,6.99
2023-01-05T06:14:30.461Z,6.97
2023-01-05T06:17:32.115Z,6.96
2023-01-05T06:20:33.854Z,6.93
2023-01-05T06:23:35.585Z,6.89
2023-01-05T06:26:37.395Z,6.86
2023-01-05T06:29:38.986Z,6.83
2023-01-05T06:32:40.838Z,6.79
2023-01-05T06:35:42.412Z,6.74
2023-01-05T06:38:44.208Z,6.68
2023-01-05T06:41:45.745Z,6.62
2023-01-05T06:44:47.281Z,6.57
2023-01-05T06:47:48.815Z,6.53
2023-01-05T06:50:50.399Z,6.49
2023-01-05T06:53:51.931Z,6.47
2023-01-05T06:56:53.580Z,6.46
2023-01-05T06:59:55.128Z,6.41
2023-01-05T07:02:56.663Z,6.38
2023-01-05T07:05:58.254Z,6.34
2023-01-05T07:09:00.157Z,6.31
2023-01-05T07:12:01.806Z,6.30
2023-01-05T07:15:03.989Z,6.28
2023-01-05T07:18:05.606Z,6.24
2023-01-05T07:21:07.627Z,6.22
2023-01-05T07:24:09.779Z,6.19
2023-01-05T07:27:11.585Z,6.15
2023-01-05T07:30:13.573Z,6.15
2023-01-05T07:33:15.291Z,6.13
2023-01-05T07:36:16.971Z,6.10
2023-01-05T07:39:19.542Z,6.05
2023-01-05T07:42:21.245Z,6.02
2023-01-05T07:45:23.465Z,5.99
2023-01-05T07:48:25.299Z,5.98
2023-01-05T07:51:26.959Z,5.97
2023-01-05T07:54:28.558Z,5.96
2023-01-05T07:57:31.549Z,5.94
2023-01-05T08:00:33.126Z,5.91
2023-01-05T08:03:34.794Z,5.91
2023-01-05T08:06:36.489Z,5.89
2023-01-05T08:09:57.653Z,5.90
2023-01-05T08:13:22.881Z,5.87
2023-01-05T08:16:24.523Z,5.87
2023-01-05T08:19:26.259Z,5.88
2023-01-05T08:22:27.864Z,5.90
2023-01-05T08:25:29.822Z,5.93
2023-01-05T08:28:35.474Z,5.94
2023-01-05T08:31:39.391Z,5.96
2023-01-05T08:34:41.030Z,5.97
2023-01-05T08:37:46.089Z,5.97
2023-01-05T08:40:47.673Z,5.95
2023-01-05T08:43:51.890Z,5.95
2023-01-05T08:46:53.553Z,5.95
2023-01-05T08:49:55.470Z,5.95
2023-01-05T08:52:57.478Z,5.96
2023-01-05T08:55:59.332Z,5.95
2023-01-05T08:59:00.877Z,5.97
2023-01-05T09:02:02.647Z,5.99
2023-01-05T09:05:04.602Z,6.01
2023-01-05T09:08:06.174Z,6.03
2023-01-05T09:11:12.364Z,6.07
2023-01-05T09:14:15.324Z,6.08
2023-01-05T09:17:16.971Z,6.09
2023-01-05T09:20:18.859Z,6.09
2023-01-05T09:23:20.424Z,6.11
2023-01-05T09:26:21.981Z,6.11
2023-01-05T09:29:23.580Z,6.11
2023-01-05T09:32:25.227Z,6.14
2023-01-05T09:35:26.801Z,6.18
2023-01-05T09:38:29.898Z,6.23
2023-01-05T09:41:37.557Z,6.28
2023-01-05T09:44:58.812Z,6.34
2023-01-05T09:48:01.431Z,6.39
2023-01-05T09:51:03.052Z,6.45
2023-01-05T09:54:04.875Z,6.54
2023-01-05T09:57:13.588Z,6.60
2023-01-05T10:00:17.219Z,6.66
2023-01-05T10:04:01.960Z,6.73
2023-01-05T10:06:50.147Z,6.78
2023-01-05T10:09:55.272Z,6.79
2023-01-05T10:13:07.065Z,6.79
2023-01-05T10:16:16.300Z,6.84
2023-01-05T10:19:20.486Z,6.87
2023-01-05T10:22:22.324Z,6.90
2023-01-05T10:25:28.015Z,6.98
2023-01-05T10:28:34.073Z,7.00
2023-01-05T10:31:55.035Z,7.01
2023-01-05T10:35:34.055Z,7.02
2023-01-05T10:38:45.725Z,7.00
2023-01-05T10:41:58.909Z,7.00
2023-01-05T10:45:03.682Z,7.01
2023-01-05T10:48:13.819Z,7.01
2023-01-05T10:51:15.393Z,7.02
2023-01-05T10:54:29.840Z,7.03
2023-01-05T10:57:38.454Z,7.04
2023-01-05T11:00:42.611Z,7.08
2023-01-05T11:04:24.306Z,7.10
2023-01-05T11:07:08.788Z,7.13
2023-01-05T11:10:23.394Z,7.18
2023-01-05T11:13:41.975Z,7.21
2023-01-05T11:17:06.337Z,7.25
2023-01-05T11:20:17.048Z,7.29
2023-01-05T11:23:35.344Z,7.31
2023-01-05T11:26:38.177Z,7.34
2023-01-05T11:29:39.897Z,7.36
2023-01-05T11:32:45.668Z,7.42
2023-01-05T11:35:47.478Z,7.44
2023-01-05T11:38:56.262Z,7.45
2023-01-05T11:42:16.398Z,7.47
2023-01-05T11:45:25.186Z,7.48
2023-01-05T11:48:32.204Z,7.48
2023-01-05T11:51:39.867Z,7.46
2023-01-05T11:54:41.464Z,7.42
2023-01-05T11:57:43.078Z,7.40
2023-01-05T12:01:02.956Z,7.41
2023-01-05T12:04:35.105Z,7.40
2023-01-05T12:07:43.007Z,7.40
2023-01-05T12:10:59.774Z,7.42
2023-01-05T12:14:04.057Z,7.42
2023-01-05T12:17:13.902Z,7.44
2023-01-05T12:20:53.110Z,7.47
2023-01-05T12:24:07.040Z,7.47
2023-01-05T12:27:27.303Z,7.47
2023-01-05T12:33:02.972Z,7.48
2023-01-05T12:34:21.808Z,7.48
2023-01-05T12:37:38.096Z,7.47
2023-01-05T12:40:45.509Z,7.48
2023-01-05T12:44:05.548Z,7.49
2023-01-05T12:47:33.911Z,7.47
2023-01-05T12:50:45.711Z,7.46
2023-01-05T12:54:07.521Z,7.44
2023-01-05T12:57:40.566Z,7.44
2023-01-05T13:00:46.303Z,7.43
2023-01-05T13:03:55.546Z,7.38
2023-01-05T13:06:59.495Z,7.35
2023-01-05T13:10:05.620Z,7.32
2023-01-05T13:13:15.084Z,7.28
2023-01-05T13:16:19.775Z,7.28
2023-01-05T13:19:53.757Z,7.27
2023-01-05T13:23:13.193Z,7.21
2023-01-05T13:26:18.030Z,7.18
2023-01-05T13:29:44.099Z,7.15
2023-01-05T13:33:30.265Z,7.13
2023-01-05T13:37:06.828Z,7.10
2023-01-05T13:40:34.396Z,7.41
2023-01-05T13:44:09.863Z,7.46
2023-01-05T13:47:27.703Z,7.43
2023-01-05T13:50:50.956Z,7.39
2023-01-05T13:53:55.382Z,7.33
2023-01-05T13:56:57.279Z,7.29
2023-01-05T14:00:08.877Z,7.27
2023-01-05T14:03:22.977Z,7.24
2023-01-05T14:06:34.907Z,7.18
2023-01-05T14:09:47.973Z,7.12
2023-01-05T14:12:51.516Z,7.08
2023-01-05T14:15:53.153Z,7.02
2023-01-05T14:19:10.999Z,7.00
2023-01-05T14:22:25.311Z,6.94
2023-01-05T14:25:39.289Z,6.90
2023-01-05T14:28:43.799Z,6.85
2023-01-05T14:31:47.632Z,6.82
2023-01-05T14:34:52.101Z,6.79
2023-01-05T14:37:59.622Z,6.78
2023-01-05T14:41:01.200Z,6.74
2023-01-05T14:44:17.125Z,6.72
2023-01-05T14:47:35.148Z,6.67
2023-01-05T14:50:40.939Z,6.64
2023-01-05T14:53:45.787Z,6.59
2023-01-05T14:57:42.454Z,6.54
2023-01-05T15:00:57.822Z,6.46
2023-01-05T15:04:12.840Z,6.44
2023-01-05T15:07:42.187Z,6.43
2023-01-05T15:11:03.804Z,6.41
2023-01-05T15:14:23.801Z,6.41
2023-01-05T15:17:34.268Z,6.40
2023-01-05T15:21:11.579Z,6.38
2023-01-05T15:24:50.304Z,6.39
2023-01-05T15:28:29.319Z,6.35
2023-01-05T15:31:40.444Z,6.29
2023-01-05T15:34:47.553Z,6.25
2023-01-05T15:37:52.128Z,6.22
2023-01-05T15:41:01.082Z,6.19
2023-01-05T15:44:02.713Z,6.21
2023-01-05T15:47:05.226Z,6.22
2023-01-05T15:50:07.636Z,6.20
2023-01-05T15:53:38.179Z,6.17
2023-01-05T15:56:41.262Z,6.13
2023-01-05T15:59:48.357Z,6.09
2023-01-05T16:02:50.377Z,6.04
2023-01-05T16:06:01.287Z,5.99
2023-01-05T16:09:20.666Z,5.94
2023-01-05T16:12:25.086Z,5.87
2023-01-05T16:15:29.633Z,5.83
2023-01-05T16:18:36.417Z,5.79
2023-01-05T16:21:49.330Z,5.74
2023-01-05T16:25:14.968Z,5.67
2023-01-05T16:28:20.047Z,5.64
2023-01-05T16:31:27.751Z,5.61
2023-01-05T16:34:31.411Z,5.58
2023-01-05T16:37:32.956Z,5.56
2023-01-05T16:40:56.297Z,5.54
2023-01-05T16:44:02.537Z,5.53
2023-01-05T16:47:07.248Z,5.53
2023-01-05T16:50:17.703Z,5.51
2023-01-05T16:53:19.695Z,5.51
2023-01-05T16:56:33.264Z,5.52
2023-01-05T16:59:48.527Z,5.52
2023-01-05T17:02:50.376Z,5.52
2023-01-05T17:05:53.780Z,5.54
2023-01-05T17:09:00.055Z,5.57
2023-01-05T17:12:01.685Z,5.59
2023-01-05T17:15:06.104Z,5.63
2023-01-05T17:21:27.557Z,5.69
2023-01-05T17:24:29.253Z,5.72
2023-01-05T17:27:31.175Z,5.76
2023-01-05T17:30:32.901Z,5.80
2023-01-05T17:33:34.527Z,5.83
2023-01-05T17:36:36.345Z,5.84
2023-01-05T17:39:37.910Z,5.88
2023-01-05T17:42:42.489Z,5.91
2023-01-05T17:45:45.252Z,5.92
2023-01-05T17:48:47.904Z,5.96
2023-01-05T17:51:49.461Z,6.01
2023-01-05T17:54:50.997Z,6.09
2023-01-05T17:57:52.970Z,6.15
2023-01-05T18:00:54.566Z,6.17
2023-01-05T18:03:56.231Z,6.26
2023-01-05T18:06:59.135Z,6.37
2023-01-05T18:10:00.804Z,6.43
2023-01-05T18:13:02.423Z,6.48
2023-01-05T18:16:08.652Z,6.50
2023-01-05T18:19:38.287Z,6.54
2023-01-05T18:22:40.831Z,6.57
2023-01-05T18:25:42.371Z,6.62
2023-01-05T18:28:43.908Z,6.63
2023-01-05T18:31:46.755Z,6.66
2023-01-05T18:34:48.293Z,6.68
2023-01-05T18:37:49.838Z,6.71
2023-01-05T18:40:51.513Z,6.74
2023-01-05T18:43:53.190Z,6.77
2023-01-05T18:46:54.786Z,6.82
2023-01-05T18:49:58.149Z,6.85
2023-01-05T18:52:59.728Z,6.88
2023-01-05T18:56:06.270Z,6.89
2023-01-05T18:59:08.061Z,6.88
2023-01-05T19:02:14.028Z,6.87
2023-01-05T19:05:15.601Z,6.82
2023-01-05T19:08:17.173Z,6.82
2023-01-05T19:11:27.567Z,6.83
2023-01-05T19:14:29.840Z,6.86
2023-01-05T19:17:33.715Z,6.88
2023-01-05T19:20:35.333Z,6.89
2023-01-05T19:23:36.981Z,6.92
2023-01-05T19:26:38.592Z,6.95
2023-01-05T19:29:40.141Z,6.97
2023-01-05T19:32:41.681Z,6.99
2023-01-05T19:35:43.227Z,7.02
2023-01-05T19:38:45.889Z,7.03
2023-01-05T19:41:49.001Z,7.04
2023-01-05T19:44:51.419Z,7.05
2023-01-05T19:47:52.970Z,7.08
2023-01-05T19:51:02.194Z,7.09
2023-01-05T19:54:05.341Z,7.09
2023-01-05T19:57:07.003Z,7.10
2023-01-05T20:00:09.198Z,7.08
2023-01-05T20:03:10.816Z,7.06
2023-01-05T20:06:20.893Z,7.02
2023-01-05T20:09:22.678Z,6.99
2023-01-05T20:12:24.221Z,6.95
2023-01-05T20:15:25.778Z,6.93
2023-01-05T20:18:27.322Z,6.91
2023-01-05T20:21:29.127Z,6.90
2023-01-05T20:24:32.765Z,6.91
2023-01-05T20:27:34.871Z,6.91
2023-01-05T20:30:36.449Z,6.92
2023-01-05T20:33:38.042Z,6.93
2023-01-05T20:36:40.543Z,6.94
2023-01-05T20:39:42.359Z,6.94
2023-01-05T20:42:44.172Z,6.98
2023-01-05T20:45:45.691Z,6.96
2023-01-05T20:48:49.688Z,6.94
2023-01-05T20:51:51.479Z,6.91
2023-01-05T20:54:55.401Z,6.91
2023-01-05T20:57:57.008Z,6.93
2023-01-05T21:01:10.136Z,6.94
2023-01-05T21:04:13.505Z,6.95
2023-01-05T21:07:15.166Z,6.92
2023-01-05T21:10:16.837Z,6.90
2023-01-05T21:13:30.971Z,6.87
2023-01-05T21:16:48.621Z,6.85
2023-01-05T21:19:50.254Z,6.78
2023-01-05T21:22:53.000Z,6.73
2023-01-05T21:26:06.666Z,6.67
2023-01-05T21:29:11.941Z,6.62
2023-01-05T21:32:13.544Z,6.59
2023-01-05T21:35:15.113Z,6.59
2023-01-05T21:38:16.660Z,6.61
2023-01-05T21:41:39.060Z,6.65
2023-01-05T21:44:41.182Z,6.69
2023-01-05T21:47:42.746Z,6.73
2023-01-05T21:51:02.825Z,6.75
2023-01-05T21:54:23.071Z,6.76
2023-01-05T21:57:24.975Z,6.77
2023-01-05T22:00:27.216Z,6.80
2023-01-05T22:03:29.742Z,6.80
2023-01-05T22:06:31.771Z,6.82
2023-01-05T22:09:36.793Z,6.84
2023-01-05T22:12:38.382Z,6.86
2023-01-05T22:15:39.922Z,6.87
2023-01-05T22:18:41.503Z,6.88
2023-01-05T22:21:43.029Z,6.88
2023-01-05T22:24:44.673Z,6.87
2023-01-05T22:27:46.446Z,6.92
2023-01-05T22:30:47.977Z,7.14
2023-01-05T22:33:52.529Z,7.18
2023-01-05T22:36:54.140Z,7.16
2023-01-05T22:39:55.740Z,7.15
2023-01-05T22:42:57.305Z,7.13
2023-01-05T22:46:03.813Z,7.11
2023-01-05T22:49:05.625Z,7.10
2023-01-05T22:52:07.239Z,7.09
2023-01-05T22:55:09.114Z,7.10
2023-01-05T22:58:11.140Z,7.09
2023-01-05T23:01:37.292Z,7.13
2023-01-05T23:04:38.803Z,7.15
2023-01-05T23:07:41.589Z,7.14
2023-01-05T23:10:43.182Z,7.13
2023-01-05T23:13:45.112Z,7.12
2023-01-05T23:16:47.330Z,7.26
2023-01-05T23:19:48.927Z,7.25
2023-01-05T23:22:50.630Z,7.26
2023-01-05T23:25:52.706Z,7.26
2023-01-05T23:28:54.546Z,7.23
2023-01-05T23:31:56.258Z,7.21
2023-01-05T23:34:57.774Z,7.20
2023-01-05T23:37:59.326Z,7.19
2023-01-05T23:41:05.853Z,7.17
2023-01-05T23:44:08.148Z,7.17
2023-01-05T23:47:09.795Z,7.16
2023-01-05T23:50:11.319Z,7.15
2023-01-05T23:53:13.667Z,7.16
2023-01-05T23:56:16.914Z,7.16
2023-01-05T23:59:18.549Z,7.16
